createdAt,value
2022-09-22T00:02:00.171Z,98.90
2022-09-22T00:03:00.015Z,98.99
2022-09-22T00:05:03.919Z,98.99
2022-09-22T00:06:03.871Z,99.18
2022-09-22T00:08:07.760Z,98.99
2022-09-22T00:09:07.730Z,98.70
2022-09-22T00:11:11.631Z,98.99
2022-09-22T00:12:11.578Z,99.37
2022-09-22T00:14:15.475Z,99.37
2022-09-22T00:15:15.439Z,98.99
2022-09-22T00:17:08.274Z,99.37
2022-09-22T00:18:08.227Z,98.99
2022-09-22T00:20:12.126Z,99.37
2022-09-22T00:21:12.076Z,99.70
2022-09-22T00:23:15.984Z,99.56
2022-09-22T00:24:15.931Z,99.51
2022-09-22T00:26:19.824Z,99.51
2022-09-22T00:27:19.784Z,99.37
2022-09-22T00:29:23.689Z,99.56
2022-09-22T00:30:23.640Z,99.51
2022-09-22T00:32:27.536Z,99.46
2022-09-22T00:33:27.495Z,99.70
2022-09-22T00:35:31.399Z,99.89
2022-09-22T00:36:31.348Z,98.94
2022-09-22T00:38:35.282Z,99.32
2022-09-22T00:39:35.203Z,99.32
2022-09-22T00:41:39.110Z,99.32
2022-09-22T00:42:39.057Z,99.70
2022-09-22T00:44:42.955Z,99.22
2022-09-22T00:45:42.916Z,98.85
2022-09-22T00:47:35.750Z,99.13
2022-09-22T00:48:35.699Z,98.85
2022-09-22T00:50:39.609Z,99.04
2022-09-22T00:51:39.557Z,98.94
2022-09-22T00:53:43.460Z,99.04
2022-09-22T00:54:43.414Z,98.85
2022-09-22T00:56:47.315Z,98.65
2022-09-22T00:57:47.271Z,98.85
2022-09-22T00:59:51.155Z,98.94
2022-09-22T01:00:51.243Z,99.04
2022-09-22T01:02:55.022Z,99.13
2022-09-22T01:03:54.970Z,99.04
2022-09-22T01:05:58.862Z,99.60
2022-09-22T01:06:58.823Z,99.60
2022-09-22T01:09:02.730Z,99.41
2022-09-22T01:10:02.677Z,99.51
2022-09-22T01:12:06.569Z,99.60
2022-09-22T01:13:06.529Z,99.60
2022-09-22T01:15:10.430Z,99.60
2022-09-22T01:16:10.503Z,99.60
2022-09-22T01:18:14.284Z,99.99
2022-09-22T01:19:14.240Z,99.99
2022-09-22T01:20:14.206Z,99.89
2022-09-22T01:21:14.167Z,99.89
2022-09-22T01:22:14.135Z,99.70
2022-09-22T01:23:14.098Z,99.22
2022-09-22T01:24:14.066Z,99.32
2022-09-22T01:25:14.028Z,99.32
2022-09-22T01:26:13.990Z,99.32
2022-09-22T01:27:13.957Z,99.51
2022-09-22T01:28:13.922Z,99.89
2022-09-22T01:29:13.886Z,99.99
2022-09-22T01:30:13.850Z,99.89
2022-09-22T01:31:13.867Z,99.99
2022-09-22T01:32:13.781Z,99.89
2022-09-22T01:33:13.740Z,99.99
2022-09-22T01:34:13.708Z,99.60
2022-09-22T01:35:13.674Z,99.99
2022-09-22T01:36:13.632Z,99.84
2022-09-22T01:37:13.595Z,99.60
2022-09-22T01:38:13.561Z,99.99
2022-09-22T01:39:13.530Z,99.65
2022-09-22T01:40:13.508Z,99.99
2022-09-22T01:41:13.455Z,99.99
2022-09-22T01:42:13.419Z,99.55
2022-09-22T01:43:13.381Z,99.94
2022-09-22T01:44:13.351Z,99.94
2022-09-22T01:45:13.311Z,99.99
2022-09-22T01:46:13.323Z,99.75
2022-09-22T01:47:13.241Z,99.65
2022-09-22T01:48:13.275Z,99.55
2022-09-22T01:49:13.171Z,99.37
2022-09-22T01:50:13.140Z,99.65
2022-09-22T01:51:13.106Z,99.37
2022-09-22T01:52:13.063Z,99.65
2022-09-22T01:53:13.026Z,99.94
2022-09-22T01:54:12.989Z,99.65
2022-09-22T01:55:12.954Z,99.55
2022-09-22T01:56:12.918Z,99.84
2022-09-22T01:57:12.879Z,99.55
2022-09-22T01:58:12.847Z,99.65
2022-09-22T01:59:12.808Z,99.65
2022-09-22T02:00:12.776Z,99.84
2022-09-22T02:01:14.766Z,99.55
2022-09-22T02:02:12.812Z,99.55
2022-09-22T02:03:12.669Z,99.55
2022-09-22T02:04:12.631Z,99.84
2022-09-22T02:05:12.593Z,99.84
2022-09-22T02:06:12.560Z,99.27
2022-09-22T02:07:12.525Z,99.65
2022-09-22T02:08:12.488Z,99.75
2022-09-22T02:09:12.449Z,99.65
2022-09-22T02:10:12.413Z,99.75
2022-09-22T02:11:12.380Z,99.75
2022-09-22T02:12:12.352Z,99.84
2022-09-22T02:13:12.309Z,99.65
2022-09-22T02:14:12.273Z,99.65
2022-09-22T02:15:12.238Z,99.65
2022-09-22T02:16:12.289Z,99.46
2022-09-22T02:17:12.166Z,99.46
2022-09-22T02:18:12.132Z,99.84
2022-09-22T02:19:13.669Z,99.55
2022-09-22T02:20:12.061Z,99.55
2022-09-22T02:21:12.024Z,99.65
2022-09-22T02:22:11.988Z,99.84
2022-09-22T02:23:11.950Z,99.84
2022-09-22T02:24:11.922Z,99.84
2022-09-22T02:25:11.882Z,99.65
2022-09-22T02:26:11.843Z,99.75
2022-09-22T02:27:11.807Z,99.99
2022-09-22T02:28:11.773Z,99.46
2022-09-22T02:29:11.734Z,99.99
2022-09-22T02:30:11.700Z,99.99
2022-09-22T02:31:20.150Z,99.99
2022-09-22T02:32:11.703Z,99.99
2022-09-22T02:33:11.593Z,99.84
2022-09-22T02:34:11.559Z,99.99
2022-09-22T02:35:11.531Z,99.99
2022-09-22T02:36:11.488Z,99.99
2022-09-22T02:37:11.450Z,99.94
2022-09-22T02:38:11.412Z,99.99
2022-09-22T02:39:11.375Z,99.99
2022-09-22T02:40:11.356Z,99.84
2022-09-22T02:41:11.301Z,99.99
2022-09-22T02:42:11.265Z,99.99
2022-09-22T02:43:11.231Z,99.99
2022-09-22T02:44:11.196Z,99.99
2022-09-22T02:45:11.157Z,99.94
2022-09-22T02:46:11.169Z,99.99
2022-09-22T02:47:11.089Z,99.98
2022-09-22T02:48:11.057Z,99.98
2022-09-22T02:49:11.016Z,99.99
2022-09-22T02:50:10.984Z,99.99
2022-09-22T02:51:10.946Z,99.98
2022-09-22T02:52:10.912Z,99.89
2022-09-22T02:53:10.876Z,99.94
2022-09-22T02:54:10.846Z,99.98
2022-09-22T02:55:10.803Z,99.98
2022-09-22T02:56:10.766Z,99.99
2022-09-22T02:57:10.737Z,99.99
2022-09-22T02:58:10.694Z,99.99
2022-09-22T02:59:10.908Z,99.99
2022-09-22T03:00:10.621Z,99.99
2022-09-22T03:01:10.621Z,99.99
2022-09-22T03:02:10.546Z,99.98
2022-09-22T03:03:10.512Z,99.99
2022-09-22T03:04:10.474Z,99.94
2022-09-22T03:05:10.494Z,99.99
2022-09-22T03:06:10.402Z,99.99
2022-09-22T03:07:10.370Z,99.99
2022-09-22T03:08:10.332Z,99.99
2022-09-22T03:09:10.295Z,99.98
2022-09-22T03:10:10.266Z,99.99
2022-09-22T03:11:10.223Z,99.99
2022-09-22T03:12:10.184Z,99.89
2022-09-22T03:13:16.410Z,99.98
2022-09-22T03:14:10.116Z,99.99
2022-09-22T03:15:10.078Z,99.99
2022-09-22T03:16:10.105Z,99.99
2022-09-22T03:17:10.003Z,99.99
2022-09-22T03:18:09.967Z,99.79
2022-09-22T03:19:09.932Z,99.98
2022-09-22T03:20:09.899Z,99.99
2022-09-22T03:21:09.862Z,99.99
2022-09-22T03:22:09.829Z,99.99
2022-09-22T03:23:09.791Z,99.99
2022-09-22T03:24:09.755Z,99.99
2022-09-22T03:25:09.718Z,99.98
2022-09-22T03:26:09.684Z,99.98
2022-09-22T03:27:09.648Z,99.99
2022-09-22T03:28:09.616Z,99.99
2022-09-22T03:29:09.572Z,99.99
2022-09-22T03:30:09.538Z,99.99
2022-09-22T03:31:09.562Z,99.99
2022-09-22T03:32:09.466Z,99.99
2022-09-22T03:33:09.435Z,99.99
2022-09-22T03:34:09.400Z,99.99
2022-09-22T03:35:09.360Z,99.99
2022-09-22T03:36:09.324Z,99.99
2022-09-22T03:37:09.285Z,99.99
2022-09-22T03:38:09.250Z,99.99
2022-09-22T03:39:09.215Z,99.99
2022-09-22T03:40:09.220Z,99.99
2022-09-22T03:41:09.142Z,99.79
2022-09-22T03:42:09.105Z,99.79
2022-09-22T03:43:13.035Z,99.99
2022-09-22T03:44:09.081Z,99.99
2022-09-22T03:45:08.996Z,99.99
2022-09-22T03:46:09.028Z,99.99
2022-09-22T03:47:08.922Z,99.98
2022-09-22T03:48:08.885Z,99.99
2022-09-22T03:49:08.850Z,99.79
2022-09-22T03:50:08.813Z,99.99
2022-09-22T03:51:08.781Z,99.99
2022-09-22T03:52:08.743Z,99.99
2022-09-22T03:53:08.706Z,99.99
2022-09-22T03:54:08.670Z,99.99
2022-09-22T03:55:08.631Z,99.99
2022-09-22T03:56:08.601Z,99.89
2022-09-22T03:57:08.562Z,99.99
2022-09-22T03:58:08.528Z,99.79
2022-09-22T03:59:08.500Z,99.89
2022-09-22T04:00:08.454Z,99.79
2022-09-22T04:01:08.456Z,99.89
2022-09-22T04:02:08.425Z,99.99
2022-09-22T04:03:08.343Z,99.99
2022-09-22T04:04:08.309Z,99.98
2022-09-22T04:05:08.270Z,99.99
2022-09-22T04:06:08.238Z,99.99
2022-09-22T04:07:08.196Z,99.99
2022-09-22T04:08:08.164Z,99.99
2022-09-22T04:09:08.125Z,99.99
2022-09-22T04:10:08.091Z,99.99
2022-09-22T04:11:08.062Z,99.99
2022-09-22T04:12:08.019Z,99.99
2022-09-22T04:13:07.989Z,99.99
2022-09-22T04:14:08.054Z,99.99
2022-09-22T04:15:07.907Z,99.60
2022-09-22T04:16:07.874Z,99.98
2022-09-22T04:17:07.834Z,99.98
2022-09-22T04:18:07.801Z,99.99
2022-09-22T04:19:07.763Z,99.99
2022-09-22T04:20:07.732Z,99.99
2022-09-22T04:21:07.688Z,99.99
2022-09-22T04:22:07.656Z,99.99
2022-09-22T04:23:07.621Z,99.99
2022-09-22T04:24:07.581Z,99.99
2022-09-22T04:25:07.547Z,99.99
2022-09-22T04:26:07.509Z,99.99
2022-09-22T04:27:21.614Z,99.99
2022-09-22T04:28:07.438Z,99.99
2022-09-22T04:29:07.404Z,99.99
2022-09-22T04:30:07.381Z,99.99
2022-09-22T04:31:07.398Z,99.99
2022-09-22T04:32:07.296Z,99.99
2022-09-22T04:33:07.255Z,99.99
2022-09-22T04:34:07.762Z,99.99
2022-09-22T04:35:07.181Z,99.99
2022-09-22T04:36:07.149Z,99.99
2022-09-22T04:37:07.111Z,99.99
2022-09-22T04:38:07.075Z,99.99
2022-09-22T04:39:07.039Z,99.99
2022-09-22T04:40:07.026Z,99.99
2022-09-22T04:41:06.966Z,99.99
2022-09-22T04:42:06.935Z,99.99
2022-09-22T04:43:06.894Z,99.99
2022-09-22T04:44:06.859Z,99.99
2022-09-22T04:45:06.835Z,99.99
2022-09-22T04:46:06.834Z,99.99
2022-09-22T04:47:06.747Z,99.99
2022-09-22T04:48:06.713Z,99.99
2022-09-22T04:49:06.685Z,99.99
2022-09-22T04:50:06.639Z,99.99
2022-09-22T04:51:06.602Z,99.99
2022-09-22T04:52:06.571Z,99.99
2022-09-22T04:53:06.528Z,99.99
2022-09-22T04:54:06.605Z,99.99
2022-09-22T04:55:06.459Z,99.99
2022-09-22T04:56:06.422Z,99.99
2022-09-22T04:57:06.385Z,99.99
2022-09-22T04:58:06.348Z,99.99
2022-09-22T04:59:06.313Z,99.99
2022-09-22T05:00:06.279Z,99.99
2022-09-22T05:01:06.277Z,99.99
2022-09-22T05:02:06.217Z,99.99
2022-09-22T05:03:06.217Z,99.99
2022-09-22T05:04:06.138Z,99.99
2022-09-22T05:05:06.095Z,99.99
2022-09-22T05:06:06.058Z,99.99
2022-09-22T05:07:06.028Z,99.99
2022-09-22T05:08:05.987Z,99.99
2022-09-22T05:09:06.043Z,99.99
2022-09-22T05:10:05.914Z,99.99
2022-09-22T05:11:05.879Z,99.99
2022-09-22T05:12:05.837Z,99.99
2022-09-22T05:13:05.807Z,99.99
2022-09-22T05:14:05.770Z,99.99
2022-09-22T05:15:05.729Z,99.99
2022-09-22T05:16:05.729Z,99.99
2022-09-22T05:17:05.656Z,99.99
2022-09-22T05:18:05.625Z,99.99
2022-09-22T05:19:05.584Z,99.99
2022-09-22T05:20:05.548Z,99.99
2022-09-22T05:21:05.517Z,99.99
2022-09-22T05:22:05.473Z,99.99
2022-09-22T05:23:05.440Z,99.99
2022-09-22T05:24:05.484Z,99.93
2022-09-22T05:25:05.363Z,99.99
2022-09-22T05:26:05.331Z,99.99
2022-09-22T05:27:12.449Z,99.99
2022-09-22T05:29:09.243Z,99.99
2022-09-22T05:30:09.142Z,99.99
2022-09-22T05:32:13.033Z,99.93
2022-09-22T05:33:12.997Z,99.99
2022-09-22T05:35:16.898Z,99.99
2022-09-22T05:36:16.847Z,99.99
2022-09-22T05:38:09.682Z,99.93
2022-09-22T05:39:09.629Z,99.99
2022-09-22T05:41:13.530Z,99.99
2022-09-22T05:42:13.480Z,99.99
2022-09-22T05:44:17.370Z,99.99
2022-09-22T05:45:17.332Z,99.99
2022-09-22T05:47:21.260Z,99.99
2022-09-22T05:48:21.185Z,99.99
2022-09-22T05:50:25.118Z,99.99
2022-09-22T05:51:25.038Z,99.99
2022-09-22T05:53:28.944Z,99.99
2022-09-22T05:54:28.891Z,99.99
2022-09-22T05:56:32.807Z,99.99
2022-09-22T05:57:32.763Z,99.99
2022-09-22T05:59:36.675Z,99.99
2022-09-22T06:00:36.630Z,99.99
2022-09-22T06:02:40.582Z,99.99
2022-09-22T06:03:40.487Z,99.99
2022-09-22T06:05:44.388Z,99.99
2022-09-22T06:06:44.336Z,99.99
2022-09-22T06:08:57.508Z,99.99
2022-09-22T06:09:48.187Z,99.99
2022-09-22T06:11:52.080Z,99.99
2022-09-22T06:12:52.044Z,99.99
2022-09-22T06:14:55.953Z,99.99
2022-09-22T06:15:55.896Z,99.99
2022-09-22T06:17:48.728Z,99.99
2022-09-22T06:18:48.684Z,99.99
2022-09-22T06:20:52.580Z,99.99
2022-09-22T06:21:52.538Z,99.99
2022-09-22T06:23:56.487Z,99.99
2022-09-22T06:24:56.390Z,99.99
2022-09-22T06:27:00.316Z,99.99
2022-09-22T06:28:00.254Z,99.99
2022-09-22T06:30:04.145Z,99.99
2022-09-22T06:31:04.117Z,99.99
2022-09-22T06:33:08.005Z,99.99
2022-09-22T06:34:07.952Z,99.99
2022-09-22T06:36:11.843Z,99.99
2022-09-22T06:37:11.801Z,99.99
2022-09-22T06:39:15.707Z,99.99
2022-09-22T06:40:17.607Z,99.99
2022-09-22T06:42:19.560Z,99.99
2022-09-22T06:43:19.509Z,99.99
2022-09-22T06:45:23.455Z,99.99
2022-09-22T06:46:23.362Z,99.99
2022-09-22T06:48:27.270Z,99.99
2022-09-22T06:49:27.325Z,99.99
2022-09-22T06:51:31.116Z,99.99
2022-09-22T06:52:31.078Z,99.99
2022-09-22T06:54:34.989Z,99.99
2022-09-22T06:55:34.930Z,99.99
2022-09-22T06:57:27.760Z,99.99
2022-09-22T06:58:27.714Z,99.99
2022-09-22T07:00:31.720Z,99.99
2022-09-22T07:01:31.730Z,99.99
2022-09-22T07:03:35.456Z,99.99
2022-09-22T07:04:35.420Z,99.99
2022-09-22T07:06:39.319Z,99.99
2022-09-22T07:07:39.273Z,99.99
2022-09-22T07:09:43.177Z,99.99
2022-09-22T07:10:43.125Z,99.99
2022-09-22T07:12:47.018Z,99.99
2022-09-22T07:13:46.985Z,99.99
2022-09-22T07:15:50.912Z,99.99
2022-09-22T07:16:50.835Z,99.99
2022-09-22T07:18:54.735Z,99.99
2022-09-22T07:19:54.688Z,99.99
2022-09-22T07:21:58.586Z,99.99
2022-09-22T07:22:58.539Z,99.99
2022-09-22T07:25:02.452Z,99.99
2022-09-22T07:26:02.394Z,99.99
2022-09-22T07:27:55.224Z,99.99
2022-09-22T07:28:55.177Z,99.99
2022-09-22T07:30:59.081Z,99.99
2022-09-22T07:31:59.061Z,99.99
2022-09-22T07:34:02.945Z,99.99
2022-09-22T07:35:02.899Z,99.99
2022-09-22T07:37:06.784Z,99.99
2022-09-22T07:38:06.746Z,99.99
2022-09-22T07:40:10.710Z,99.99
2022-09-22T07:41:10.595Z,99.99
2022-09-22T07:43:14.492Z,99.99
2022-09-22T07:44:14.455Z,99.99
2022-09-22T07:46:18.416Z,99.99
2022-09-22T07:47:18.309Z,99.95
2022-09-22T07:49:22.203Z,99.95
2022-09-22T07:50:22.221Z,99.85
2022-09-22T07:52:26.080Z,99.99
2022-09-22T07:53:26.019Z,99.99
2022-09-22T07:55:29.909Z,99.61
2022-09-22T07:56:29.870Z,99.52
2022-09-22T07:58:33.777Z,99.32
2022-09-22T07:59:33.733Z,99.13
2022-09-22T08:01:37.665Z,98.94
2022-09-22T08:02:37.583Z,99.23
2022-09-22T08:04:41.495Z,99.32
2022-09-22T08:05:41.515Z,99.23
2022-09-22T08:07:34.273Z,98.94
2022-09-22T08:08:34.234Z,98.71
2022-09-22T08:10:38.135Z,97.85
2022-09-22T08:11:38.087Z,97.85
2022-09-22T08:13:41.982Z,98.13
2022-09-22T08:14:41.941Z,98.03
2022-09-22T08:16:45.897Z,98.13
2022-09-22T08:17:45.798Z,98.32
2022-09-22T08:19:49.709Z,97.94
2022-09-22T08:20:49.659Z,98.13
2022-09-22T08:22:53.575Z,97.42
2022-09-22T08:23:53.513Z,97.89
2022-09-22T08:25:57.410Z,98.18
2022-09-22T08:26:57.374Z,98.08
2022-09-22T08:29:01.278Z,97.80
2022-09-22T08:30:01.232Z,97.32
2022-09-22T08:32:05.137Z,97.32
2022-09-22T08:33:05.090Z,97.32
2022-09-22T08:35:08.983Z,97.13
2022-09-22T08:36:08.950Z,97.32
2022-09-22T08:38:01.784Z,97.61
2022-09-22T08:39:01.732Z,96.66
2022-09-22T08:41:05.667Z,96.51
2022-09-22T08:42:05.589Z,96.61
2022-09-22T08:44:09.497Z,96.70
2022-09-22T08:45:09.468Z,95.94
2022-09-22T08:47:13.347Z,96.80
2022-09-22T08:48:13.327Z,96.22
2022-09-22T08:50:17.227Z,95.51
2022-09-22T08:51:17.168Z,95.98
2022-09-22T08:53:21.063Z,96.37
2022-09-22T08:54:21.026Z,95.89
2022-09-22T08:56:24.935Z,95.22
2022-09-22T08:57:24.884Z,95.61
2022-09-22T08:59:28.781Z,94.26
2022-09-22T09:00:28.761Z,94.55
2022-09-22T09:02:32.736Z,94.31
2022-09-22T09:03:32.604Z,94.12
2022-09-22T09:05:36.520Z,94.02
2022-09-22T09:06:36.469Z,93.55
2022-09-22T09:08:40.361Z,93.45
2022-09-22T09:09:40.329Z,93.45
2022-09-22T09:11:44.239Z,92.59
2022-09-22T09:12:44.185Z,91.83
2022-09-22T09:14:48.088Z,91.92
2022-09-22T09:15:48.075Z,91.16
2022-09-22T09:17:40.884Z,92.06
2022-09-22T09:18:40.835Z,92.16
2022-09-22T09:20:44.736Z,92.06
2022-09-22T09:21:44.705Z,92.16
2022-09-22T09:26:52.459Z,90.19
2022-09-22T09:27:52.426Z,90.39
2022-09-22T09:29:56.332Z,90.96
2022-09-22T09:30:56.359Z,90.67
2022-09-22T09:33:00.195Z,91.82
2022-09-22T09:34:00.154Z,91.53
2022-09-22T09:36:04.089Z,91.34
2022-09-22T09:37:04.008Z,91.49
2022-09-22T09:39:07.905Z,90.72
2022-09-22T09:40:07.884Z,90.62
2022-09-22T09:42:11.782Z,91.19
2022-09-22T09:43:11.765Z,90.53
2022-09-22T09:45:15.643Z,88.70
2022-09-22T09:46:15.650Z,88.70
2022-09-22T09:48:08.422Z,89.47
2022-09-22T09:49:08.387Z,89.95
2022-09-22T09:51:12.296Z,88.75
2022-09-22T09:52:12.258Z,89.04
2022-09-22T09:54:17.451Z,88.75
2022-09-22T09:55:16.118Z,88.17
2022-09-22T09:57:20.028Z,87.26
2022-09-22T09:58:19.982Z,86.78
2022-09-22T10:00:23.881Z,84.09
2022-09-22T10:01:23.925Z,83.52
2022-09-22T10:03:27.835Z,84.00
2022-09-22T10:04:27.708Z,84.28
2022-09-22T10:06:31.611Z,84.14
2022-09-22T10:09:35.497Z,83.85
2022-09-22T10:10:35.479Z,81.93
2022-09-22T10:12:39.351Z,83.22
2022-09-22T10:13:39.317Z,82.93
2022-09-22T10:15:43.326Z,78.90
2022-09-22T10:16:43.184Z,79.19
2022-09-22T10:18:47.105Z,79.99
2022-09-22T10:19:47.058Z,79.80
2022-09-22T10:21:50.955Z,78.84
2022-09-22T10:22:50.925Z,78.88
2022-09-22T10:24:54.831Z,78.78
2022-09-22T10:25:54.790Z,78.78
2022-09-22T10:27:47.623Z,77.83
2022-09-22T10:28:47.586Z,78.25
2022-09-22T10:30:51.529Z,76.52
2022-09-22T10:31:51.456Z,75.94
2022-09-22T10:33:55.361Z,73.77
2022-09-22T10:34:55.329Z,74.15
2022-09-22T10:36:59.244Z,73.22
2022-09-22T10:37:59.199Z,72.45
2022-09-22T10:40:03.155Z,73.32
2022-09-22T10:41:03.065Z,73.84
2022-09-22T10:43:06.975Z,73.39
2022-09-22T10:44:34.636Z,72.91
2022-09-22T10:46:10.924Z,70.21
2022-09-22T10:47:10.810Z,69.93
2022-09-22T10:49:14.718Z,69.67
2022-09-22T10:50:14.683Z,67.94
2022-09-22T10:52:18.606Z,68.42
2022-09-22T10:53:18.583Z,68.65
2022-09-22T10:55:22.481Z,68.87
2022-09-22T10:56:22.438Z,68.39
2022-09-22T10:58:15.272Z,66.56
2022-09-22T10:59:15.239Z,66.36
2022-09-22T11:01:19.222Z,65.20
2022-09-22T11:02:19.117Z,66.36
2022-09-22T11:04:23.329Z,66.40
2022-09-22T11:05:22.990Z,67.46
2022-09-22T11:07:16.436Z,67.01
2022-09-22T11:08:15.988Z,67.04
2022-09-22T11:10:19.915Z,66.56
2022-09-22T11:11:19.872Z,65.24
2022-09-22T11:13:23.786Z,65.24
2022-09-22T11:14:23.743Z,62.34
2022-09-22T11:16:27.666Z,62.05
2022-09-22T11:17:27.618Z,62.53
2022-09-22T11:19:31.535Z,62.34
2022-09-22T11:20:31.503Z,61.08
2022-09-22T11:22:35.422Z,62.15
2022-09-22T11:23:35.383Z,60.92
2022-09-22T11:25:39.291Z,59.76
2022-09-22T11:26:39.259Z,60.37
2022-09-22T11:28:32.127Z,59.98
2022-09-22T11:29:32.089Z,58.65
2022-09-22T11:31:35.996Z,59.91
2022-09-22T11:32:35.965Z,60.43
2022-09-22T11:34:39.888Z,58.20
2022-09-22T11:35:39.853Z,57.26
2022-09-22T11:37:43.757Z,57.36
2022-09-22T11:38:43.724Z,58.45
2022-09-22T11:40:47.796Z,58.06
2022-09-22T11:41:47.612Z,57.68
2022-09-22T11:43:53.504Z,55.54
2022-09-22T11:44:51.494Z,55.18
2022-09-22T11:46:55.412Z,54.31
2022-09-22T11:47:55.379Z,55.77
2022-09-22T11:49:59.303Z,54.53
2022-09-22T11:50:59.271Z,53.27
2022-09-22T11:53:03.181Z,52.78
2022-09-22T11:54:03.148Z,52.88
2022-09-22T11:56:07.075Z,53.00
2022-09-22T11:57:07.033Z,52.52
2022-09-22T11:59:10.946Z,52.45
2022-09-22T12:00:10.919Z,53.71
2022-09-22T12:02:14.915Z,53.30
2022-09-22T12:03:14.902Z,53.49
2022-09-22T12:05:18.714Z,52.62
2022-09-22T12:06:18.689Z,52.23
2022-09-22T12:08:11.542Z,52.91
2022-09-22T12:09:11.509Z,52.30
2022-09-22T12:11:15.415Z,52.94
2022-09-22T12:12:15.386Z,53.52
2022-09-22T12:14:19.305Z,51.77
2022-09-22T12:15:19.270Z,50.60
2022-09-22T12:17:23.773Z,50.43
2022-09-22T12:18:23.175Z,51.60
2022-09-22T12:20:27.083Z,51.11
2022-09-22T12:21:27.039Z,51.53
2022-09-22T12:23:30.956Z,50.48
2022-09-22T12:24:30.932Z,50.78
2022-09-22T12:25:47.623Z,50.38
2022-09-22T12:26:30.897Z,48.71
2022-09-22T12:27:30.863Z,49.19
2022-09-22T12:28:30.833Z,49.99
2022-09-22T12:29:30.806Z,51.17
2022-09-22T12:30:30.818Z,50.09
2022-09-22T12:31:30.768Z,50.09
2022-09-22T12:32:30.744Z,50.70
2022-09-22T12:33:30.706Z,50.29
2022-09-22T12:34:30.683Z,50.31
2022-09-22T12:35:31.220Z,49.24
2022-09-22T12:36:30.634Z,48.07
2022-09-22T12:37:30.606Z,47.78
2022-09-22T12:38:30.584Z,48.85
2022-09-22T12:39:30.555Z,47.59
2022-09-22T12:40:30.638Z,48.36
2022-09-22T12:41:30.506Z,48.66
2022-09-22T12:42:30.483Z,48.85
2022-09-22T12:43:30.457Z,48.36
2022-09-22T12:44:30.431Z,48.68
2022-09-22T12:45:30.409Z,47.22
2022-09-22T12:46:30.386Z,47.61
2022-09-22T12:47:30.372Z,48.49
2022-09-22T12:48:30.334Z,47.42
2022-09-22T12:49:30.311Z,47.42
2022-09-22T12:50:30.296Z,46.93
2022-09-22T12:51:30.264Z,47.22
2022-09-22T12:52:30.236Z,47.13
2022-09-22T12:53:30.265Z,46.71
2022-09-22T12:54:30.193Z,47.22
2022-09-22T12:55:30.164Z,47.32
2022-09-22T12:56:30.144Z,47.61
2022-09-22T12:57:30.128Z,47.80
2022-09-22T12:58:30.098Z,47.53
2022-09-22T12:59:30.069Z,47.03
2022-09-22T13:00:32.901Z,47.42
2022-09-22T13:01:30.153Z,48.12
2022-09-22T13:02:29.992Z,48.90
2022-09-22T13:03:29.980Z,47.34
2022-09-22T13:04:29.945Z,48.14
2022-09-22T13:05:29.921Z,48.73
2022-09-22T13:06:29.899Z,47.85
2022-09-22T13:07:29.873Z,47.27
2022-09-22T13:08:29.846Z,47.27
2022-09-22T13:09:29.828Z,48.14
2022-09-22T13:10:29.801Z,47.46
2022-09-22T13:11:29.774Z,46.59
2022-09-22T13:12:29.754Z,47.27
2022-09-22T13:13:29.729Z,46.88
2022-09-22T13:14:29.706Z,46.90
2022-09-22T13:15:29.681Z,47.39
2022-09-22T13:16:29.689Z,46.51
2022-09-22T13:17:29.631Z,46.02
2022-09-22T13:18:29.618Z,46.53
2022-09-22T13:19:29.582Z,46.14
2022-09-22T13:20:29.563Z,46.24
2022-09-22T13:21:29.536Z,46.92
2022-09-22T13:22:29.516Z,45.95
2022-09-22T13:23:29.489Z,46.34
2022-09-22T13:24:29.467Z,46.53
2022-09-22T13:25:29.445Z,45.44
2022-09-22T13:26:29.420Z,46.22
2022-09-22T13:27:29.392Z,46.02
2022-09-22T13:28:29.369Z,45.92
2022-09-22T13:29:29.353Z,46.70
2022-09-22T13:30:29.475Z,47.02
2022-09-22T13:31:29.329Z,48.17
2022-09-22T13:32:29.281Z,46.31
2022-09-22T13:33:29.248Z,47.49
2022-09-22T13:34:29.254Z,47.90
2022-09-22T13:35:29.203Z,47.51
2022-09-22T13:36:29.179Z,47.22
2022-09-22T13:37:29.158Z,47.12
2022-09-22T13:38:29.134Z,46.44
2022-09-22T13:39:29.108Z,46.83
2022-09-22T13:40:29.168Z,46.83
2022-09-22T13:41:29.064Z,47.12
2022-09-22T13:42:29.064Z,46.83
2022-09-22T13:43:29.014Z,46.34
2022-09-22T13:44:28.992Z,45.85
2022-09-22T13:45:28.967Z,45.85
2022-09-22T13:46:28.956Z,45.46
2022-09-22T13:47:28.920Z,45.92
2022-09-22T13:48:28.900Z,46.61
2022-09-22T13:49:28.873Z,46.88
2022-09-22T13:50:28.850Z,46.88
2022-09-22T13:51:28.825Z,46.66
2022-09-22T13:52:28.805Z,47.44
2022-09-22T13:53:28.781Z,46.95
2022-09-22T13:54:28.754Z,48.12
2022-09-22T13:55:28.733Z,47.53
2022-09-22T13:56:28.706Z,47.36
2022-09-22T13:57:28.692Z,47.66
2022-09-22T13:58:28.659Z,47.17
2022-09-22T13:59:28.635Z,47.17
2022-09-22T14:00:28.615Z,46.88
2022-09-22T14:01:28.680Z,46.10
2022-09-22T14:02:31.918Z,46.78
2022-09-22T14:03:28.541Z,47.27
2022-09-22T14:04:28.521Z,47.39
2022-09-22T14:05:28.493Z,47.39
2022-09-22T14:06:28.470Z,46.78
2022-09-22T14:07:28.443Z,46.05
2022-09-22T14:08:28.425Z,47.34
2022-09-22T14:09:28.393Z,48.12
2022-09-22T14:10:28.378Z,47.53
2022-09-22T14:11:28.342Z,47.25
2022-09-22T14:12:28.324Z,47.15
2022-09-22T14:13:28.294Z,47.44
2022-09-22T14:14:28.276Z,47.44
2022-09-22T14:15:28.248Z,47.92
2022-09-22T14:16:28.268Z,48.12
2022-09-22T14:17:28.199Z,47.25
2022-09-22T14:18:28.176Z,46.76
2022-09-22T14:19:28.147Z,46.78
2022-09-22T14:20:28.126Z,46.76
2022-09-22T14:21:28.097Z,46.86
2022-09-22T14:22:28.074Z,46.86
2022-09-22T14:23:28.050Z,48.12
2022-09-22T14:24:28.031Z,47.03
2022-09-22T14:25:28.001Z,47.22
2022-09-22T14:26:27.979Z,46.83
2022-09-22T14:27:27.951Z,46.64
2022-09-22T14:28:27.926Z,47.22
2022-09-22T14:29:27.904Z,46.93
2022-09-22T14:30:27.878Z,48.10
2022-09-22T14:31:27.888Z,47.63
2022-09-22T14:32:27.829Z,47.05
2022-09-22T14:33:27.807Z,47.34
2022-09-22T14:34:27.780Z,46.56
2022-09-22T14:35:27.755Z,46.10
2022-09-22T14:36:27.728Z,46.49
2022-09-22T14:37:27.703Z,46.00
2022-09-22T14:38:27.716Z,46.88
2022-09-22T14:39:31.454Z,46.20
2022-09-22T14:40:27.707Z,47.07
2022-09-22T14:41:27.605Z,47.85
2022-09-22T14:42:27.581Z,46.88
2022-09-22T14:43:27.556Z,46.59
2022-09-22T14:44:27.528Z,46.20
2022-09-22T14:45:27.610Z,45.10
2022-09-22T14:46:27.576Z,45.68
2022-09-22T14:47:27.454Z,46.56
2022-09-22T14:48:27.430Z,47.44
2022-09-22T14:49:27.406Z,46.88
2022-09-22T14:50:27.385Z,45.61
2022-09-22T14:51:27.355Z,46.20
2022-09-22T14:52:27.332Z,45.92
2022-09-22T14:53:27.306Z,46.70
2022-09-22T14:54:27.284Z,45.44
2022-09-22T14:55:27.263Z,46.41
2022-09-22T14:56:27.236Z,45.05
2022-09-22T14:57:27.208Z,46.63
2022-09-22T14:58:27.188Z,46.04
2022-09-22T14:59:27.161Z,44.87
2022-09-22T15:00:27.139Z,44.56
2022-09-22T15:01:27.141Z,44.56
2022-09-22T15:02:27.194Z,45.64
2022-09-22T15:03:27.072Z,45.75
2022-09-22T15:04:27.041Z,45.46
2022-09-22T15:05:29.949Z,45.75
2022-09-22T15:06:26.994Z,45.07
2022-09-22T15:07:26.767Z,44.48
2022-09-22T15:08:26.746Z,45.58
2022-09-22T15:09:26.723Z,45.00
2022-09-22T15:10:26.700Z,44.70
2022-09-22T15:11:26.675Z,44.87
2022-09-22T15:12:26.653Z,44.87
2022-09-22T15:13:26.628Z,45.26
2022-09-22T15:14:26.606Z,44.58
2022-09-22T15:15:26.586Z,44.68
2022-09-22T15:16:26.571Z,44.78
2022-09-22T15:17:26.536Z,43.90
2022-09-22T15:18:30.502Z,42.71
2022-09-22T15:19:26.488Z,43.47
2022-09-22T15:20:26.468Z,43.88
2022-09-22T15:21:26.444Z,43.88
2022-09-22T15:22:26.421Z,44.56
2022-09-22T15:23:26.396Z,45.15
2022-09-22T15:24:26.374Z,45.36
2022-09-22T15:25:26.351Z,44.46
2022-09-22T15:26:26.333Z,43.76
2022-09-22T15:27:26.299Z,43.76
2022-09-22T15:28:26.288Z,43.76
2022-09-22T15:29:26.257Z,44.03
2022-09-22T15:30:26.231Z,44.71
2022-09-22T15:31:26.239Z,44.62
2022-09-22T15:32:26.185Z,44.83
2022-09-22T15:33:26.161Z,45.03
2022-09-22T15:34:26.135Z,45.32
2022-09-22T15:35:26.115Z,44.54
2022-09-22T15:36:26.090Z,45.51
2022-09-22T15:37:26.068Z,45.51
2022-09-22T15:38:26.050Z,45.51
2022-09-22T15:39:26.021Z,45.81
2022-09-22T15:40:26.014Z,46.69
2022-09-22T15:41:25.970Z,45.90
2022-09-22T15:42:26.149Z,45.71
2022-09-22T15:43:26.118Z,45.42
2022-09-22T15:44:26.097Z,45.90
2022-09-22T15:45:26.111Z,45.90
2022-09-22T15:46:26.050Z,44.59